Time;durP1;ratioP1;P1;durP2;ratioP2;P2;SDS_P1;SDS_P2;PMS_P1;PMS_P2;Temp;Humidity;BMP_temperature;BMP_pressure;BME280_temperature;BME280_humidity;BME280_pressure;Samples;Min_cycle;Max_cycle;Signal;HPM_P1;HPM_P2
2024/01/13 00:02:25;;;;;;;15.75;14.35;;;;;;;-2.57;56.42;95347.78;5057423;28;20223;-64
2024/01/13 00:04:53;;;;;;;15.63;14.18;;;;;;;-2.54;56.80;95347.28;5058078;28;20255;-64
2024/01/13 00:07:20;;;;;;;15.20;13.80;;;;;;;-2.49;56.68;95341.88;5058190;28;20519;-64
2024/01/13 00:09:48;;;;;;;15.73;14.32;;;;;;;-2.46;56.07;95352.16;5075055;28;20251;-64
2024/01/13 00:12:15;;;;;;;14.50;13.10;;;;;;;-2.42;56.15;95338.94;5075085;28;20231;-64
2024/01/13 00:14:42;;;;;;;14.98;13.60;;;;;;;-2.40;55.29;95335.94;5057645;28;20204;-64
2024/01/13 00:17:10;;;;;;;14.77;13.43;;;;;;;-2.43;55.10;95332.72;5058072;28;20232;-64
2024/01/13 00:19:37;;;;;;;14.70;13.40;;;;;;;-2.43;54.88;95332.72;5075247;28;20212;-64
2024/01/13 00:22:06;;;;;;;14.00;12.70;;;;;;;-2.44;55.61;95333.78;5058076;28;20213;-64
2024/01/13 00:24:33;;;;;;;15.43;14.02;;;;;;;-2.40;55.17;95335.94;5057606;28;20518;-64
2024/01/13 00:27:00;;;;;;;15.27;13.88;;;;;;;-2.38;55.26;95329.22;5075283;28;20197;-64
2024/01/13 00:29:27;;;;;;;14.77;13.38;;;;;;;-2.40;55.01;95330.56;5075285;28;20229;-64
2024/01/13 00:31:55;;;;;;;15.00;13.63;;;;;;;-2.40;55.15;95334.06;5057282;28;20287;-64
2024/01/13 00:34:22;;;;;;;15.10;13.60;;;;;;;-2.40;55.01;95342.16;5075039;28;20292;-64
2024/01/13 00:36:49;;;;;;;14.35;13.05;;;;;;;-2.35;55.09;95334.09;5058244;28;20227;-64
2024/01/13 00:39:17;;;;;;;14.73;13.43;;;;;;;-2.33;55.17;95331.13;5074722;28;20193;-64
2024/01/13 00:41:43;;;;;;;15.15;13.68;;;;;;;-2.35;54.84;95331.41;5057277;28;20546;-64
2024/01/13 00:44:10;;;;;;;14.80;13.40;;;;;;;-2.34;55.03;95329.50;5060219;28;20266;-64
2024/01/13 00:46:37;;;;;;;15.27;13.80;;;;;;;-2.36;54.94;95323.53;5061417;28;20193;-64
2024/01/13 00:49:05;;;;;;;14.88;13.48;;;;;;;-2.39;54.85;95324.91;5078901;28;20212;-64
2024/01/13 00:51:33;;;;;;;15.32;13.93;;;;;;;-2.42;55.32;95322.72;5079421;28;20228;-64
2024/01/13 00:54:01;;;;;;;16.70;15.00;;;;;;;-2.39;55.33;95322.19;5078850;28;20197;-64
2024/01/13 00:56:29;;;;;;;15.90;14.40;;;;;;;-2.39;55.70;95311.41;5061277;28;20532;-64
2024/01/13 00:58:56;;;;;;;15.55;14.05;;;;;;;-2.38;56.00;95318.41;5061451;28;20266;-64
2024/01/13 01:01:23;;;;;;;14.93;13.63;;;;;;;-2.36;55.52;95326.25;5061209;28;20234;-64
2024/01/13 01:03:50;;;;;;;16.20;14.60;;;;;;;-2.39;56.10;95324.91;5061921;28;20262;-64
2024/01/13 01:06:20;;;;;;;16.40;14.85;;;;;;;-2.38;56.05;95326.53;5061034;28;20201;-64
2024/01/13 01:08:47;;;;;;;16.20;14.70;;;;;;;-2.38;55.91;95323.00;5078318;28;20224;-64
2024/01/13 01:11:14;;;;;;;16.70;15.10;;;;;;;-2.40;55.82;95323.25;5060967;28;20232;-64
2024/01/13 01:13:43;;;;;;;15.85;14.45;;;;;;;-2.38;56.16;95315.72;5078472;28;20193;-64
2024/01/13 01:16:10;;;;;;;16.13;14.57;;;;;;;-2.35;56.35;95314.38;5078377;28;20193;-64
2024/01/13 01:18:38;;;;;;;15.98;14.55;;;;;;;-2.33;56.09;95304.09;5077185;28;20201;-64
2024/01/13 01:21:05;;;;;;;16.02;14.52;;;;;;;-2.32;56.07;95298.44;5060829;28;20225;-64
2024/01/13 01:23:33;;;;;;;16.15;14.65;;;;;;;-2.30;56.36;95298.97;5078478;28;20193;-64
2024/01/13 01:25:59;;;;;;;16.67;15.10;;;;;;;-2.29;56.31;95297.09;5060895;28;20579;-64
2024/01/13 01:28:26;;;;;;;16.58;15.05;;;;;;;-2.30;56.28;95300.88;5078415;28;20197;-64
2024/01/13 01:30:55;;;;;;;16.58;15.07;;;;;;;-2.29;56.13;95292.50;5078307;28;20306;-64
2024/01/13 01:33:22;;;;;;;17.42;15.77;;;;;;;-2.30;56.37;95290.06;5060405;28;20240;-64
2024/01/13 01:35:49;;;;;;;17.45;15.77;;;;;;;-2.28;56.40;95285.22;5060356;28;20213;-64
2024/01/13 01:38:16;;;;;;;16.73;15.20;;;;;;;-2.26;56.74;95289.25;5078425;28;20201;-64
2024/01/13 01:40:43;;;;;;;18.02;16.23;;;;;;;-2.23;56.83;95288.72;5077754;28;20652;-64
2024/01/13 01:43:10;;;;;;;18.25;16.52;;;;;;;-2.29;56.73;95284.41;5060261;28;20244;-64
2024/01/13 01:45:38;;;;;;;16.88;15.27;;;;;;;-2.26;56.56;95288.44;5060316;28;20236;-64
2024/01/13 01:48:08;;;;;;;17.33;15.77;;;;;;;-2.25;56.42;95279.25;5060088;28;20197;-64
2024/01/13 01:50:36;;;;;;;17.80;16.10;;;;;;;-2.25;56.76;95292.75;5060268;28;20193;-64
2024/01/13 01:53:03;;;;;;;18.30;16.60;;;;;;;-2.22;56.84;95297.63;5077506;28;20189;-67
2024/01/13 01:55:30;;;;;;;18.00;16.30;;;;;;;-2.21;56.79;95302.00;5077627;28;20259;-67
2024/01/13 01:58:00;;;;;;;18.45;16.65;;;;;;;-2.21;57.42;95296.59;5060338;28;20236;-67
2024/01/13 02:00:27;;;;;;;17.27;15.55;;;;;;;-2.21;57.25;95304.69;5077246;28;20215;-67
2024/01/13 02:02:54;;;;;;;17.35;15.73;;;;;;;-2.22;57.00;95300.34;5060522;28;20572;-67
2024/01/13 02:05:23;;;;;;;18.80;17.10;;;;;;;-2.22;57.26;95298.44;5060859;28;20207;-67
2024/01/13 02:07:50;;;;;;;17.77;16.08;;;;;;;-2.24;57.14;95297.91;5059947;28;20209;-67
2024/01/13 02:10:17;;;;;;;17.65;15.95;;;;;;;-2.28;56.95;95288.72;5076527;28;20636;-67
2024/01/13 02:12:45;;;;;;;17.77;16.08;;;;;;;-2.28;57.04;95299.53;5077439;28;20189;-67
2024/01/13 02:15:12;;;;;;;17.13;15.52;;;;;;;-2.28;56.90;95301.44;5077066;28;20224;-67
2024/01/13 02:17:39;;;;;;;17.90;16.20;;;;;;;-2.24;57.45;95289.81;5077036;28;20185;-67
2024/01/13 02:20:08;;;;;;;19.25;17.35;;;;;;;-2.25;57.46;95290.06;5059616;28;20616;-67
2024/01/13 02:22:37;;;;;;;18.27;16.60;;;;;;;-2.26;57.62;95286.56;5077162;28;20598;-67
2024/01/13 02:25:05;;;;;;;18.38;16.65;;;;;;;-2.27;57.37;95284.13;5069173;28;20189;-67
2024/01/13 02:27:32;;;;;;;18.92;17.20;;;;;;;-2.26;57.51;95274.94;5059500;28;20671;-67
2024/01/13 02:30:00;;;;;;;18.33;16.52;;;;;;;-2.22;57.48;95274.13;5077026;28;20224;-66
2024/01/13 02:32:27;;;;;;;18.10;16.40;;;;;;;-2.25;57.30;95276.56;5076588;28;20271;-67
2024/01/13 02:34:54;;;;;;;18.40;16.65;;;;;;;-2.27;57.53;95273.31;5076663;28;20215;-67
2024/01/13 02:37:21;;;;;;;18.73;16.92;;;;;;;-2.28;57.50;95269.00;5059471;28;20228;-67
2024/01/13 02:39:49;;;;;;;18.38;16.58;;;;;;;-2.29;57.35;95265.50;5059899;28;20201;-67
2024/01/13 02:42:16;;;;;;;19.17;17.38;;;;;;;-2.28;57.62;95266.31;5059444;28;20263;-67
2024/01/13 02:44:43;;;;;;;19.33;17.52;;;;;;;-2.28;57.98;95261.72;5076756;28;20189;-67
2024/01/13 02:47:10;;;;;;;18.85;16.95;;;;;;;-2.34;57.82;95256.56;5059817;28;20579;-67
2024/01/13 02:49:37;;;;;;;19.20;17.40;;;;;;;-2.32;58.63;95265.22;5076788;28;20497;-67
2024/01/13 02:52:05;;;;;;;18.15;16.45;;;;;;;-2.32;58.36;95267.91;5076707;28;20254;-67
2024/01/13 02:54:32;;;;;;;18.33;16.63;;;;;;;-2.30;58.30;95268.44;5076559;28;20193;-67
2024/01/13 02:57:01;;;;;;;18.80;16.98;;;;;;;-2.29;58.28;95267.38;5059733;28;20201;-67
2024/01/13 02:59:28;;;;;;;19.00;17.17;;;;;;;-2.28;58.40;95269.00;5058759;28;20201;-67
2024/01/13 03:01:55;;;;;;;19.67;17.77;;;;;;;-2.29;58.26;95267.38;5058746;28;20248;-67
2024/01/13 03:04:22;;;;;;;19.33;17.58;;;;;;;-2.31;58.89;95274.94;5076232;28;20276;-67
2024/01/13 03:06:49;;;;;;;20.20;17.70;;;;;;;-2.32;58.86;95274.13;5074957;28;20609;-67
2024/01/13 03:09:16;;;;;;;19.50;17.70;;;;;;;-2.29;59.37;95281.72;5075350;28;20585;-67
2024/01/13 03:11:43;;;;;;;19.73;17.83;;;;;;;-2.23;59.49;95286.03;5058671;28;20197;-67
2024/01/13 03:14:11;;;;;;;20.08;18.17;;;;;;;-2.22;59.26;95286.84;5076146;28;20197;-67
2024/01/13 03:16:38;;;;;;;20.30;18.42;;;;;;;-2.22;59.50;95298.44;5059015;28;20201;-65
2024/01/13 03:19:06;;;;;;;19.38;17.50;;;;;;;-2.19;59.15;95302.53;5076147;28;20266;-65
2024/01/13 03:21:33;;;;;;;19.98;18.08;;;;;;;-2.18;59.46;95293.31;5058716;28;20224;-65
2024/01/13 03:24:00;;;;;;;19.38;17.48;;;;;;;-2.13;59.08;95300.66;5076303;28;20193;-65
2024/01/13 03:26:26;;;;;;;19.08;17.27;;;;;;;-2.16;59.26;95291.19;5075867;28;20197;-65
2024/01/13 03:28:53;;;;;;;18.40;16.70;;;;;;;-2.19;59.28;95299.81;5058823;28;20221;-65
2024/01/13 03:31:22;;;;;;;19.00;17.20;;;;;;;-2.16;58.80;95293.88;5075323;28;20232;-65
2024/01/13 03:33:49;;;;;;;17.67;15.98;;;;;;;-2.18;58.68;95296.03;5058540;28;20235;-65
2024/01/13 03:36:16;;;;;;;18.15;16.45;;;;;;;-2.25;58.39;95293.59;5075736;28;20189;-65
2024/01/13 03:38:43;;;;;;;17.55;15.95;;;;;;;-2.31;58.71;95301.97;5057939;28;20255;-65
2024/01/13 03:41:10;;;;;;;18.15;16.45;;;;;;;-2.40;58.41;95298.13;5075890;28;20205;-65
2024/01/13 03:43:37;;;;;;;17.92;16.23;;;;;;;-2.42;58.22;95296.53;5058097;28;20193;-65
2024/01/13 03:46:05;;;;;;;18.92;16.98;;;;;;;-2.45;58.03;95304.34;5075263;28;20194;-65
2024/01/13 03:48:33;;;;;;;18.17;16.48;;;;;;;-2.48;58.55;95294.88;5058191;28;20204;-65
2024/01/13 03:51:00;;;;;;;18.77;17.08;;;;;;;-2.49;58.33;95277.06;5075567;28;20209;-65
2024/01/13 03:53:28;;;;;;;19.52;17.63;;;;;;;-2.49;57.95;95284.34;5057989;28;20197;-65
2024/01/13 03:55:55;;;;;;;19.40;17.50;;;;;;;-2.52;58.17;95280.28;5058144;28;20211;-65
2024/01/13 03:58:22;;;;;;;19.20;17.40;;;;;;;-2.64;58.10;95282.41;5075404;28;20216;-65
2024/01/13 04:00:49;;;;;;;19.92;17.92;;;;;;;-2.66;58.79;95279.94;5074460;28;20197;-65
2024/01/13 04:03:16;;;;;;;19.52;17.73;;;;;;;-2.61;58.83;95281.06;5058277;28;20282;-65
2024/01/13 04:05:44;;;;;;;20.10;18.20;;;;;;;-2.58;59.01;95278.63;5058222;28;20193;-65
2024/01/13 04:08:11;;;;;;;20.02;18.20;;;;;;;-2.64;58.96;95271.59;5057673;28;20304;-65
2024/01/13 04:10:38;;;;;;;19.95;18.05;;;;;;;-2.70;59.20;95284.25;5057450;28;20197;-65
2024/01/13 04:13:05;;;;;;;20.08;18.17;;;;;;;-2.66;59.29;95288.06;5075228;28;20227;-65
2024/01/13 04:15:33;;;;;;;20.23;18.23;;;;;;;-2.61;58.91;95279.19;5056927;28;20216;-65
2024/01/13 04:18:00;;;;;;;19.77;17.85;;;;;;;-2.63;58.74;95281.31;5074947;28;20189;-65
2024/01/13 04:20:27;;;;;;;21.02;19.02;;;;;;;-2.64;58.94;95287.81;5057600;28;20205;-64
2024/01/13 04:22:55;;;;;;;20.17;18.27;;;;;;;-2.66;59.09;95288.06;5075368;28;20237;-65
2024/01/13 04:25:22;;;;;;;19.70;17.80;;;;;;;-2.65;59.14;95299.69;5075100;28;20201;-65
2024/01/13 04:27:50;;;;;;;18.27;16.60;;;;;;;-2.72;57.99;95294.53;5057461;28;20201;-64
2024/01/13 04:30:17;;;;;;;17.73;16.08;;;;;;;-2.71;57.70;95304.25;5075439;28;20197;-64
2024/01/13 04:32:44;;;;;;;17.42;15.82;;;;;;;-2.70;57.25;95313.97;5057306;28;20256;-64
2024/01/13 04:35:12;;;;;;;18.30;16.67;;;;;;;-2.73;57.47;95305.56;5057443;28;20228;-64
2024/01/13 04:37:39;;;;;;;17.48;15.80;;;;;;;-2.73;57.45;95319.06;5057351;28;20232;-65
2024/01/13 04:40:09;;;;;;;17.88;16.13;;;;;;;-2.76;56.59;95311.50;5074164;28;20217;-65
2024/01/13 04:42:36;;;;;;;17.02;15.52;;;;;;;-2.81;56.48;95317.69;5074974;28;20259;-65
2024/01/13 04:45:03;;;;;;;17.38;15.68;;;;;;;-2.77;56.47;95315.28;5057056;28;20209;-65
2024/01/13 04:47:30;;;;;;;17.42;15.80;;;;;;;-2.76;56.74;95330.41;5075254;28;20216;-65
2024/01/13 04:49:57;;;;;;;17.02;15.52;;;;;;;-2.75;56.50;95326.66;5074939;28;20221;-65
2024/01/13 04:52:24;;;;;;;16.77;15.20;;;;;;;-2.73;56.56;95324.47;5074916;28;20185;-64
2024/01/13 04:54:51;;;;;;;16.35;14.85;;;;;;;-2.71;56.26;95323.16;5074844;28;20193;-64
2024/01/13 04:57:19;;;;;;;16.40;14.90;;;;;;;-2.69;55.94;95326.41;5057453;28;20209;-64
2024/01/13 04:59:46;;;;;;;15.63;14.23;;;;;;;-2.68;56.20;95324.53;5074824;28;20255;-64
2024/01/13 05:02:13;;;;;;;17.02;15.32;;;;;;;-2.68;55.71;95319.13;5074474;28;20213;-64
2024/01/13 05:04:40;;;;;;;16.00;14.50;;;;;;;-2.68;55.31;95325.31;5057483;28;20190;-64
2024/01/13 05:07:08;;;;;;;15.50;14.10;;;;;;;-2.70;55.25;95323.97;5074698;28;20535;-64
2024/01/13 05:09:35;;;;;;;15.93;14.48;;;;;;;-2.73;55.71;95322.59;5074725;28;20208;-63
2024/01/13 05:12:02;;;;;;;16.38;14.85;;;;;;;-2.72;55.49;95318.03;5074987;28;20261;-64
2024/01/13 05:14:31;;;;;;;15.40;14.00;;;;;;;-2.73;55.68;95306.38;5074941;28;20267;-64
2024/01/13 05:16:58;;;;;;;16.17;14.68;;;;;;;-2.76;55.50;95304.25;5074653;28;20197;-64
2024/01/13 05:19:25;;;;;;;16.17;14.68;;;;;;;-2.82;55.30;95296.38;5074768;28;20213;-66
2024/01/13 05:21:53;;;;;;;15.85;14.45;;;;;;;-2.87;55.84;95296.34;5056895;28;20260;-66
2024/01/13 05:24:19;;;;;;;16.45;14.82;;;;;;;-2.89;55.35;95283.09;5057481;28;20237;-66
2024/01/13 05:26:46;;;;;;;14.40;13.18;;;;;;;-2.88;55.65;95281.22;5074598;28;20194;-66
2024/01/13 05:29:13;;;;;;;14.98;13.57;;;;;;;-2.92;55.92;95283.63;5057711;28;20209;-66
2024/01/13 05:31:42;;;;;;;15.63;14.27;;;;;;;-2.92;55.99;95278.22;5077602;28;20241;-66
2024/01/13 05:34:09;;;;;;;15.52;14.23;;;;;;;-2.93;55.55;95268.53;5077903;28;20255;-66
2024/01/13 05:36:37;;;;;;;14.90;13.60;;;;;;;-2.94;56.14;95270.41;5078302;28;20232;-67
2024/01/13 05:39:04;;;;;;;16.13;14.55;;;;;;;-2.93;55.75;95274.72;5077955;28;20197;-67
2024/01/13 05:41:31;;;;;;;15.32;13.88;;;;;;;-2.95;55.61;95281.44;5078035;28;20243;-67
2024/01/13 05:43:58;;;;;;;15.68;14.20;;;;;;;-3.00;55.85;95286.84;5061066;28;20270;-67
2024/01/13 05:46:25;;;;;;;16.10;14.55;;;;;;;-3.04;55.84;95297.34;5077531;28;20632;-67
2024/01/13 05:48:53;;;;;;;15.98;14.52;;;;;;;-3.04;56.28;95301.94;5060240;28;20197;-67
2024/01/13 05:51:20;;;;;;;15.27;13.80;;;;;;;-3.03;56.10;95307.06;5060469;28;20197;-67
2024/01/13 05:53:47;;;;;;;15.90;14.40;;;;;;;-3.04;55.75;95300.03;5077747;28;20189;-67
2024/01/13 05:56:14;;;;;;;16.15;14.65;;;;;;;-3.03;56.12;95303.53;5060767;28;20205;-67
2024/01/13 05:58:41;;;;;;;16.35;14.88;;;;;;;-3.05;56.31;95313.78;5060317;28;20621;-67
2024/01/13 06:01:08;;;;;;;16.30;14.80;;;;;;;-3.09;56.23;95300.00;5060563;28;20263;-67
2024/01/13 06:03:36;;;;;;;15.27;13.98;;;;;;;-3.08;56.58;95309.75;5076873;28;20621;-67
2024/01/13 06:06:05;;;;;;;15.80;14.27;;;;;;;-3.05;56.27;95311.91;5060262;28;20255;-67
2024/01/13 06:08:32;;;;;;;15.73;14.32;;;;;;;-3.04;56.06;95310.03;5059592;28;20205;-67
2024/01/13 06:11:01;;;;;;;15.30;13.85;;;;;;;-3.03;55.88;95303.53;5060417;28;20228;-68
2024/01/13 06:13:28;;;;;;;15.63;14.23;;;;;;;-3.01;55.93;95306.81;5060054;28;20271;-68
2024/01/13 06:15:55;;;;;;;16.55;14.85;;;;;;;-3.05;55.78;95301.13;5076611;28;20201;-65
2024/01/13 06:18:22;;;;;;;14.70;13.40;;;;;;;-3.05;55.86;95305.69;5059767;28;20205;-65
2024/01/13 06:20:51;;;;;;;14.63;13.27;;;;;;;-3.05;56.03;95306.53;5076926;28;20205;-65
2024/01/13 06:23:19;;;;;;;14.88;13.45;;;;;;;-3.01;56.37;95301.41;5043605;28;20229;-67
2024/01/13 06:25:46;;;;;;;16.42;14.93;;;;;;;-2.97;56.32;95305.22;5060216;28;20229;-67
2024/01/13 06:28:13;;;;;;;14.90;13.57;;;;;;;-2.95;56.31;95305.75;5077403;28;20185;-67
2024/01/13 06:30:40;;;;;;;15.55;14.18;;;;;;;-2.94;55.98;95299.28;5076745;28;20247;-67
2024/01/13 06:33:07;;;;;;;15.40;14.07;;;;;;;-2.96;56.00;95302.25;5059422;28;20201;-67
2024/01/13 06:35:34;;;;;;;16.02;14.63;;;;;;;-2.97;56.14;95300.63;5059413;28;20235;-67
2024/01/13 06:38:00;;;;;;;14.90;13.50;;;;;;;-3.00;56.22;95297.63;5059080;28;20201;-65
2024/01/13 06:40:29;;;;;;;16.40;14.90;;;;;;;-2.96;56.20;95296.84;5059505;28;20197;-65
2024/01/13 06:42:56;;;;;;;15.38;13.98;;;;;;;-2.94;56.49;95285.81;5076260;28;20271;-65
2024/01/13 06:45:23;;;;;;;15.57;14.07;;;;;;;-2.91;56.43;95287.94;5059999;28;20201;-64
2024/01/13 06:47:50;;;;;;;15.68;14.27;;;;;;;-2.94;56.12;95300.09;5059812;28;20189;-64
2024/01/13 06:50:17;;;;;;;15.68;14.27;;;;;;;-2.89;55.83;95309.28;5076285;28;20197;-64
2024/01/13 06:52:44;;;;;;;15.68;14.27;;;;;;;-2.92;55.87;95316.81;5076190;28;20197;-64
2024/01/13 06:55:11;;;;;;;15.70;14.30;;;;;;;-2.88;56.26;95317.13;5059460;28;20248;-65
2024/01/13 06:57:39;;;;;;;16.00;14.45;;;;;;;-2.86;55.96;95323.09;5076380;28;20209;-65
2024/01/13 07:00:08;;;;;;;15.32;14.02;;;;;;;-2.85;55.85;95322.00;5076145;28;20188;-69
2024/01/13 07:02:35;;;;;;;13.57;12.25;;;;;;;-2.80;55.99;95316.59;5059188;28;20687;-64
2024/01/13 07:05:02;;;;;;;13.65;12.02;;;;;;;-2.82;56.27;95320.66;5075722;28;20189;-63
2024/01/13 07:07:31;;;;;;;15.68;14.18;;;;;;;-2.80;55.95;95326.59;5075623;28;20220;-65
2024/01/13 07:09:58;;;;;;;15.85;14.35;;;;;;;-2.82;55.97;95336.88;5058872;28;20539;-65
2024/01/13 07:12:25;;;;;;;15.75;14.35;;;;;;;-2.78;56.08;95341.47;5058333;28;20231;-66
2024/01/13 07:14:53;;;;;;;15.70;14.30;;;;;;;-2.74;56.56;95337.16;5058418;28;20461;-66
2024/01/13 07:17:20;;;;;;;15.02;13.70;;;;;;;-2.70;55.99;95345.56;5058241;28;20231;-66
2024/01/13 07:19:47;;;;;;;16.23;14.75;;;;;;;-2.64;56.00;95341.00;5074908;28;20200;-66
2024/01/13 07:22:14;;;;;;;16.15;14.65;;;;;;;-2.61;56.38;95344.00;5059082;28;20365;-66
2024/01/13 07:24:41;;;;;;;16.65;15.23;;;;;;;-2.58;55.93;95343.44;5058742;28;20198;-68
2024/01/13 07:27:09;;;;;;;17.23;15.68;;;;;;;-2.58;55.83;95356.94;5058202;28;20192;-68
2024/01/13 07:29:36;;;;;;;17.30;15.77;;;;;;;-2.55;56.06;95350.22;5058622;28;20284;-68
2024/01/13 07:32:05;;;;;;;17.25;15.73;;;;;;;-2.53;56.18;95354.28;5058935;28;20302;-68
2024/01/13 07:34:32;;;;;;;16.67;15.18;;;;;;;-2.52;56.17;95355.91;5058838;28;20247;-65
2024/01/13 07:36:59;;;;;;;17.00;15.50;;;;;;;-2.50;56.78;95353.75;5075659;28;20201;-65
2024/01/13 07:39:26;;;;;;;16.75;15.27;;;;;;;-2.47;57.17;95347.84;5058222;28;20205;-65
2024/01/13 07:41:53;;;;;;;17.25;15.65;;;;;;;-2.44;56.85;95352.69;5075220;28;20197;-65
2024/01/13 07:44:20;;;;;;;17.00;15.43;;;;;;;-2.44;57.01;95352.69;5058690;28;20209;-68
2024/01/13 07:46:47;;;;;;;16.08;14.68;;;;;;;-2.44;56.33;95347.28;5058100;28;20205;-68
2024/01/13 07:49:15;;;;;;;16.83;15.32;;;;;;;-2.40;56.93;95355.66;5058546;28;20220;-68
2024/01/13 07:51:42;;;;;;;16.95;15.50;;;;;;;-2.39;56.69;95349.22;5057635;28;20209;-68
2024/01/13 07:54:09;;;;;;;16.02;14.63;;;;;;;-2.35;56.68;95346.81;5057950;28;20239;-68
2024/01/13 07:56:36;;;;;;;16.10;14.65;;;;;;;-2.35;56.77;95346.81;5058118;28;20224;-68
2024/01/13 07:59:04;;;;;;;15.52;14.13;;;;;;;-2.32;56.81;95338.97;5074328;28;20193;-68
2024/01/13 08:01:31;;;;;;;16.67;14.98;;;;;;;-2.26;56.76;95351.41;5074418;28;20201;-68
2024/01/13 08:03:58;;;;;;;15.20;13.80;;;;;;;-2.23;56.11;95341.97;5057688;28;20252;-68
2024/01/13 08:06:26;;;;;;;15.60;14.15;;;;;;;-2.14;56.48;95353.06;5058694;28;20209;-68
2024/01/13 08:08:53;;;;;;;14.95;13.55;;;;;;;-2.03;56.54;95344.72;5058365;28;20197;-68
2024/01/13 08:11:20;;;;;;;16.35;14.95;;;;;;;-1.94;56.17;95347.72;5058168;28;20266;-67
2024/01/13 08:13:47;;;;;;;14.90;13.55;;;;;;;-1.89;55.99;95336.09;5058574;28;20212;-67
2024/01/13 08:16:14;;;;;;;16.40;14.80;;;;;;;-1.87;55.81;95348.28;5057733;28;20205;-67
2024/01/13 08:18:42;;;;;;;14.95;13.65;;;;;;;-1.83;55.99;95345.84;5074541;28;20258;-67
2024/01/13 08:21:09;;;;;;;14.73;13.52;;;;;;;-1.78;55.62;95343.13;5058388;28;20193;-67
2024/01/13 08:23:38;;;;;;;14.65;13.35;;;;;;;-1.79;55.64;95339.63;5057587;28;20220;-67
2024/01/13 08:26:05;;;;;;;14.93;13.43;;;;;;;-1.79;55.55;95347.72;5049267;28;20193;-67
2024/01/13 08:28:32;;;;;;;13.65;12.45;;;;;;;-1.79;55.33;95350.44;5074861;28;20204;-68
2024/01/13 08:30:59;;;;;;;14.10;12.82;;;;;;;-1.79;55.44;95346.94;5057232;28;20272;-68
2024/01/13 08:33:26;;;;;;;13.88;12.68;;;;;;;-1.73;56.06;95346.66;5058419;28;20299;-68
2024/01/13 08:35:53;;;;;;;12.95;11.85;;;;;;;-1.70;55.64;95345.34;5057707;28;20205;-68
2024/01/13 08:38:20;;;;;;;13.15;12.05;;;;;;;-1.74;55.67;95331.53;5074786;28;20185;-68
2024/01/13 08:40:48;;;;;;;12.98;11.88;;;;;;;-1.72;55.39;95329.34;5073861;28;20248;-68
2024/01/13 08:43:15;;;;;;;13.38;12.23;;;;;;;-1.69;56.18;95333.41;5057335;28;20213;-68
2024/01/13 08:45:42;;;;;;;12.85;11.68;;;;;;;-1.58;55.49;95329.63;5057025;28;20250;-67
2024/01/13 08:48:09;;;;;;;12.43;11.40;;;;;;;-1.53;54.95;95318.81;5074057;28;20228;-68
2024/01/13 08:50:36;;;;;;;12.32;11.23;;;;;;;-1.44;54.96;95323.69;5057568;28;20330;-68
2024/01/13 08:53:03;;;;;;;12.20;11.10;;;;;;;-1.36;54.52;95315.84;5057379;28;20232;-68
2024/01/13 08:55:30;;;;;;;11.82;10.82;;;;;;;-1.43;54.85;95304.47;5073707;28;20197;-68
2024/01/13 08:58:00;;;;;;;12.18;11.07;;;;;;;-1.44;54.50;95302.06;5073704;28;20201;-67
2024/01/13 09:00:28;;;;;;;11.75;10.65;;;;;;;-1.43;54.53;95304.47;5074389;28;20590;-67
2024/01/13 09:02:55;;;;;;;12.43;11.32;;;;;;;-1.30;54.81;95293.13;5057371;28;20213;-65
2024/01/13 09:05:22;;;;;;;11.77;10.68;;;;;;;-1.11;54.45;95284.41;5058404;28;20201;-65
2024/01/13 09:07:49;;;;;;;12.40;11.40;;;;;;;-0.94;54.16;95293.06;5061565;28;20193;-65
2024/01/13 09:10:16;;;;;;;12.07;11.07;;;;;;;-0.78;53.85;95283.78;5061476;28;20207;-65
2024/01/13 09:12:43;;;;;;;10.77;9.88;;;;;;;-0.63;52.81;95274.78;5077900;28;20576;-65
2024/01/13 09:15:14;;;;;;;10.95;10.05;;;;;;;-0.49;53.58;95283.94;5060648;28;20584;-65
2024/01/13 09:17:41;;;;;;;11.68;10.63;;;;;;;-0.51;51.93;95271.75;5061317;28;20215;-65
2024/01/13 09:20:10;;;;;;;10.70;9.80;;;;;;;-0.45;51.91;95281.47;5060895;28;20209;-65
2024/01/13 09:22:37;;;;;;;10.35;9.35;;;;;;;-0.37;51.89;95271.97;5061038;28;20221;-68
2024/01/13 09:25:05;;;;;;;10.57;9.68;;;;;;;-0.29;52.41;95269.50;5060928;28;20228;-68
2024/01/13 09:27:32;;;;;;;11.02;9.93;;;;;;;-0.26;51.85;95260.78;5060894;28;20197;-68
2024/01/13 09:29:59;;;;;;;10.77;9.88;;;;;;;0.02;51.92;95255.72;5061247;28;20568;-67
2024/01/13 09:32:27;;;;;;;11.13;10.13;;;;;;;0.27;51.27;95249.31;5060465;28;20233;-68
2024/01/13 09:34:54;;;;;;;9.93;9.13;;;;;;;0.62;50.56;95244.69;5060508;28;20262;-68
2024/01/13 09:37:21;;;;;;;10.48;9.48;;;;;;;1.02;49.39;95234.50;5078119;28;20262;-68
2024/01/13 09:39:48;;;;;;;9.90;9.02;;;;;;;1.13;47.13;95238.75;5077376;28;20589;-68
2024/01/13 09:42:22;;;;;;;10.00;9.10;;;;;;;1.08;47.60;95231.44;5077574;28;20209;-68
2024/01/13 09:44:48;;;;;;;9.68;8.88;;;;;;;1.22;46.62;95237.00;5076728;28;20593;-68
2024/01/13 09:47:16;;;;;;;10.82;9.93;;;;;;;1.00;46.27;95234.78;5060329;28;20250;-68
2024/01/13 09:49:44;;;;;;;10.10;9.25;;;;;;;0.74;46.33;95241.59;5076775;28;20239;-68
2024/01/13 09:52:11;;;;;;;10.20;9.23;;;;;;;0.48;47.05;95229.06;5060275;28;20237;-65
2024/01/13 09:54:38;;;;;;;10.23;9.23;;;;;;;0.32;47.89;95227.56;5060683;28;20251;-65
2024/01/13 09:57:06;;;;;;;9.98;9.07;;;;;;;0.21;47.93;95229.53;5060153;28;20209;-65
2024/01/13 09:59:33;;;;;;;10.98;9.98;;;;;;;0.07;48.47;95228.56;5060367;28;20525;-65
2024/01/13 10:02:00;;;;;;;11.40;10.40;;;;;;;0.00;48.89;95217.25;5060004;28;20201;-66
2024/01/13 10:04:27;;;;;;;10.98;9.98;;;;;;;-0.04;48.64;95219.72;5076922;28;20217;-65
2024/01/13 10:06:57;;;;;;;10.50;9.70;;;;;;;-0.13;48.87;95217.88;5077636;28;20247;-65
2024/01/13 10:09:23;;;;;;;9.35;8.57;;;;;;;-0.18;48.71;95202.47;5060133;28;20194;-65
2024/01/13 10:11:51;;;;;;;10.18;9.32;;;;;;;-0.20;49.89;95201.13;5060453;28;20593;-65
2024/01/13 10:14:18;;;;;;;10.65;9.68;;;;;;;-0.14;50.39;95189.16;5059539;28;20267;-65
2024/01/13 10:16:45;;;;;;;10.20;9.30;;;;;;;-0.09;50.30;95184.50;5059835;28;20262;-65
2024/01/13 10:19:11;;;;;;;10.25;9.30;;;;;;;-0.04;49.54;95189.91;5060129;28;20442;-64
2024/01/13 10:21:39;;;;;;;10.70;9.80;;;;;;;0.00;49.85;95176.59;5058288;28;20884;-66
2024/01/13 10:24:08;;;;;;;9.98;9.07;;;;;;;0.07;49.73;95176.22;5059136;28;20699;-66
2024/01/13 10:26:35;;;;;;;10.38;9.48;;;;;;;0.15;49.46;95172.94;5060106;28;20233;-66
2024/01/13 10:29:02;;;;;;;10.00;9.10;;;;;;;0.19;50.04;95166.66;5060041;28;20209;-66
2024/01/13 10:31:30;;;;;;;9.90;9.00;;;;;;;0.20;49.91;95170.16;5060193;28;20257;-66
2024/01/13 10:33:57;;;;;;;10.57;9.68;;;;;;;0.24;49.37;95161.16;5059415;28;20651;-66
2024/01/13 10:36:25;;;;;;;10.27;9.38;;;;;;;0.26;49.35;95158.19;5060301;28;20254;-66
2024/01/13 10:38:52;;;;;;;10.82;9.93;;;;;;;0.28;49.69;95152.47;5076061;28;20197;-68
2024/01/13 10:41:23;;;;;;;11.60;10.50;;;;;;;0.42;49.54;95151.50;5059566;28;20582;-68
2024/01/13 10:43:54;;;;;;;9.70;8.90;;;;;;;0.80;49.63;95158.97;5059362;28;20224;-68
2024/01/13 10:46:23;;;;;;;9.63;8.77;;;;;;;1.19;49.16;95150.63;5075861;28;20225;-68
2024/01/13 10:48:51;;;;;;;9.75;8.88;;;;;;;1.46;48.09;95144.56;5058830;28;20201;-68
2024/01/13 10:51:24;;;;;;;9.95;9.00;;;;;;;1.54;47.53;95151.25;5059527;28;20566;-69
2024/01/13 10:53:52;;;;;;;10.15;9.15;;;;;;;1.53;46.46;95146.94;5058971;28;20291;-68
2024/01/13 10:56:21;;;;;;;9.85;9.05;;;;;;;1.46;46.96;95141.84;5059816;28;20205;-69
2024/01/13 10:58:48;;;;;;;10.48;9.48;;;;;;;1.45;47.67;95148.38;5059186;28;20205;-69
2024/01/13 11:01:15;;;;;;;10.43;9.52;;;;;;;1.44;47.82;95147.56;5058905;28;20239;-69
2024/01/13 11:03:42;;;;;;;10.02;9.13;;;;;;;1.60;47.39;95142.72;5059041;28;20225;-69
2024/01/13 11:06:09;;;;;;;10.60;9.70;;;;;;;1.80;47.28;95144.31;5059396;28;20209;-68
2024/01/13 11:08:39;;;;;;;10.80;9.90;;;;;;;1.95;46.22;95150.63;5075997;28;20248;-68
2024/01/13 11:11:07;;;;;;;10.60;9.60;;;;;;;1.94;45.49;95149.81;5058506;28;20533;-68
2024/01/13 11:13:42;;;;;;;9.68;8.82;;;;;;;2.21;45.69;95137.41;5058890;28;20209;-68
2024/01/13 11:16:12;;;;;;;9.85;8.90;;;;;;;2.35;45.36;95130.91;5058879;28;20222;-68
2024/01/13 11:18:45;;;;;;;10.40;9.50;;;;;;;2.79;45.39;95129.53;5059410;28;20640;-66
2024/01/13 11:21:12;;;;;;;9.93;9.02;;;;;;;2.98;43.80;95143.09;5058903;28;20204;-66